createdAt,value
2023-02-07T00:00:08.425Z,99.86
2023-02-07T00:03:47.415Z,99.75
2023-02-07T00:07:26.412Z,99.64
2023-02-07T00:10:46.634Z,99.64
2023-02-07T00:14:22.821Z,99.98
2023-02-07T00:17:59.470Z,100.00
2023-02-07T00:21:33.338Z,100.00
2023-02-07T00:25:07.977Z,100.00
2023-02-07T00:28:25.526Z,100.00
2023-02-07T00:31:58.974Z,100.00
2023-02-07T00:35:16.336Z,100.00
2023-02-07T00:38:34.068Z,100.00
2023-02-07T00:41:53.910Z,100.00
2023-02-07T00:45:29.542Z,100.00
2023-02-07T00:48:47.872Z,100.00
2023-02-07T00:52:20.770Z,99.90
2023-02-07T00:55:50.114Z,100.00
2023-02-07T00:59:12.338Z,100.00
2023-02-07T01:02:50.257Z,100.00
2023-02-07T01:06:22.732Z,100.00
2023-02-07T01:09:42.821Z,100.00
2023-02-07T01:13:18.767Z,100.00
2023-02-07T01:16:36.829Z,100.00
2023-02-07T01:20:10.665Z,100.00
2023-02-07T01:23:28.121Z,100.00
2023-02-07T01:27:00.694Z,100.00
2023-02-07T01:30:18.342Z,100.00
2023-02-07T01:33:37.293Z,100.00
2023-02-07T01:36:57.465Z,100.00
2023-02-07T01:40:36.497Z,100.00
2023-02-07T01:43:58.637Z,100.00
2023-02-07T01:47:35.465Z,100.00
2023-02-07T01:50:55.723Z,100.00
2023-02-07T01:54:16.812Z,100.00
2023-02-07T01:57:34.811Z,100.00
2023-02-07T02:01:19.118Z,100.00
2023-02-07T02:04:39.531Z,100.00
2023-02-07T02:08:00.296Z,100.00
2023-02-07T02:11:36.905Z,100.00
2023-02-07T02:15:15.727Z,100.00
2023-02-07T02:18:53.322Z,100.00
2023-02-07T02:22:44.520Z,100.00
2023-02-07T02:26:40.456Z,100.00
2023-02-07T02:30:35.127Z,100.00
2023-02-07T02:34:30.629Z,100.00
2023-02-07T02:37:53.122Z,100.00
2023-02-07T02:41:19.656Z,100.00
2023-02-07T02:45:00.633Z,100.00
2023-02-07T02:48:19.737Z,100.00
2023-02-07T02:51:37.205Z,100.00
2023-02-07T02:55:13.584Z,100.00
2023-02-07T02:59:13.781Z,100.00
2023-02-07T03:02:51.749Z,100.00
2023-02-07T03:06:27.502Z,100.00
2023-02-07T03:10:13.440Z,100.00
2023-02-07T03:13:49.958Z,100.00
2023-02-07T03:17:36.158Z,100.00
2023-02-07T03:21:35.086Z,100.00
2023-02-07T03:24:56.510Z,100.00
2023-02-07T03:28:34.581Z,100.00
2023-02-07T03:31:58.160Z,100.00
2023-02-07T03:35:41.216Z,100.00
2023-02-07T03:39:17.078Z,100.00
2023-02-07T03:42:43.700Z,100.00
2023-02-07T03:46:18.009Z,100.00
2023-02-07T03:49:45.354Z,100.00
2023-02-07T03:53:17.022Z,100.00
2023-02-07T03:56:50.526Z,100.00
2023-02-07T04:00:27.985Z,100.00
2023-02-07T04:04:00.556Z,100.00
2023-02-07T04:07:18.099Z,100.00
2023-02-07T04:11:02.892Z,100.00
2023-02-07T04:14:22.383Z,100.00
2023-02-07T04:17:43.027Z,100.00
2023-02-07T04:21:05.513Z,100.00
2023-02-07T04:24:38.529Z,100.00
2023-02-07T04:27:58.180Z,100.00
2023-02-07T04:31:15.298Z,100.00
2023-02-07T04:34:48.250Z,100.00
2023-02-07T04:38:05.380Z,100.00
2023-02-07T04:41:24.782Z,100.00
2023-02-07T04:44:42.961Z,100.00
2023-02-07T04:48:02.239Z,100.00
2023-02-07T04:51:20.068Z,100.00
2023-02-07T04:54:41.864Z,100.00
2023-02-07T04:57:59.029Z,100.00
2023-02-07T05:01:29.932Z,100.00
2023-02-07T05:05:04.771Z,100.00
2023-02-07T05:08:26.273Z,100.00
2023-02-07T05:11:42.101Z,100.00
2023-02-07T05:14:59.437Z,100.00
2023-02-07T05:18:18.446Z,100.00
2023-02-07T05:21:36.051Z,100.00
2023-02-07T05:24:54.393Z,100.00
2023-02-07T05:28:12.412Z,100.00
2023-02-07T05:32:06.631Z,100.00
2023-02-07T05:35:25.086Z,100.00
2023-02-07T05:38:57.542Z,100.00
2023-02-07T05:42:18.820Z,100.00
2023-02-07T05:45:41.887Z,100.00
2023-02-07T05:49:01.428Z,100.00
2023-02-07T05:52:35.810Z,100.00
2023-02-07T05:56:07.493Z,100.00
2023-02-07T05:59:40.374Z,100.00
2023-02-07T06:02:58.520Z,100.00
2023-02-07T06:06:16.065Z,100.00
2023-02-07T06:09:49.005Z,100.00
2023-02-07T06:13:06.204Z,100.00
2023-02-07T06:16:23.710Z,100.00
2023-02-07T06:19:40.048Z,100.00
2023-02-07T06:22:57.049Z,100.00
2023-02-07T06:26:19.778Z,100.00
2023-02-07T06:29:46.882Z,100.00
2023-02-07T06:33:23.197Z,100.00
2023-02-07T06:36:55.240Z,100.00
2023-02-07T06:40:30.092Z,100.00
2023-02-07T06:44:04.745Z,100.00
2023-02-07T06:47:37.733Z,100.00
2023-02-07T06:50:55.021Z,100.00
2023-02-07T06:54:27.628Z,100.00
2023-02-07T06:57:54.119Z,100.00
2023-02-07T07:01:29.793Z,100.00
2023-02-07T07:05:19.582Z,100.00
2023-02-07T07:08:47.139Z,100.00
2023-02-07T07:12:17.152Z,100.00
2023-02-07T07:16:00.674Z,100.00
2023-02-07T07:19:35.030Z,100.00
2023-02-07T07:23:14.564Z,100.00
2023-02-07T07:26:50.311Z,100.00
2023-02-07T07:30:35.741Z,100.00
2023-02-07T07:34:18.333Z,100.00
2023-02-07T07:37:57.957Z,98.60
2023-02-07T07:41:18.156Z,98.42
2023-02-07T07:45:11.155Z,98.54
2023-02-07T07:49:03.370Z,97.42
2023-02-07T07:52:43.363Z,96.61
2023-02-07T07:56:25.669Z,96.18
2023-02-07T07:59:42.014Z,95.12
2023-02-07T08:03:06.434Z,94.72
2023-02-07T08:06:43.113Z,94.19
2023-02-07T08:10:03.886Z,91.80
2023-02-07T08:13:39.075Z,91.84
2023-02-07T08:17:13.236Z,92.42
2023-02-07T08:20:56.424Z,92.25
2023-02-07T08:25:01.703Z,90.46
2023-02-07T08:28:20.550Z,90.17
2023-02-07T08:31:52.938Z,90.14
2023-02-07T08:35:26.690Z,88.86
2023-02-07T08:38:44.397Z,87.04
2023-02-07T08:42:09.925Z,88.75
2023-02-07T08:46:09.363Z,86.69
2023-02-07T08:49:43.449Z,86.84
2023-02-07T08:53:21.709Z,85.56
2023-02-07T08:57:00.877Z,85.87
2023-02-07T09:00:40.902Z,86.87
2023-02-07T09:04:19.425Z,83.17
2023-02-07T09:07:33.808Z,84.12
2023-02-07T09:11:01.601Z,82.98
2023-02-07T09:14:48.671Z,81.14
2023-02-07T09:22:22.816Z,81.54
2023-02-07T09:26:17.783Z,79.34
2023-02-07T09:29:56.223Z,79.66
2023-02-07T09:33:25.629Z,78.56
2023-02-07T09:36:44.942Z,79.78
2023-02-07T09:40:05.745Z,77.60
2023-02-07T09:43:57.974Z,76.05
2023-02-07T09:47:45.767Z,76.98
2023-02-07T09:51:06.976Z,74.81
2023-02-07T09:54:43.974Z,75.14
2023-02-07T09:58:25.922Z,74.41
2023-02-07T10:01:43.284Z,73.03
2023-02-07T10:05:34.864Z,70.64
2023-02-07T10:13:05.228Z,68.73
2023-02-07T10:16:55.372Z,69.09
2023-02-07T10:20:35.340Z,67.27
2023-02-07T10:24:23.345Z,68.02
2023-02-07T10:55:01.257Z,61.73
2023-02-07T11:02:40.262Z,62.15
2023-02-07T11:06:04.329Z,60.15
2023-02-07T11:09:42.293Z,60.81
2023-02-07T11:13:01.904Z,58.78
2023-02-07T11:16:35.169Z,60.54
2023-02-07T11:20:38.601Z,58.93
2023-02-07T11:24:29.125Z,58.39
2023-02-07T11:28:11.156Z,55.72
2023-02-07T11:32:16.404Z,53.66
2023-02-07T11:35:36.137Z,53.01
2023-02-07T11:39:18.725Z,49.99
2023-02-07T11:43:18.461Z,50.97
2023-02-07T11:46:50.983Z,53.15
2023-02-07T11:50:35.290Z,51.39
2023-02-07T11:54:06.748Z,47.55
2023-02-07T11:57:45.315Z,44.88
2023-02-07T12:01:32.719Z,44.67
2023-02-07T12:05:22.203Z,47.50
2023-02-07T12:08:56.299Z,48.97
2023-02-07T12:21:04.319Z,49.18
2023-02-07T12:24:33.724Z,51.12
2023-02-07T12:28:04.479Z,52.43
2023-02-07T12:32:10.501Z,54.03
2023-02-07T12:36:04.403Z,52.49
2023-02-07T12:40:10.357Z,52.70
2023-02-07T12:44:21.338Z,53.27
2023-02-07T12:48:18.992Z,52.27
2023-02-07T12:52:08.634Z,51.42
2023-02-07T12:55:47.756Z,51.48
2023-02-07T12:59:47.592Z,52.64
2023-02-07T13:03:30.238Z,51.77
2023-02-07T13:06:52.612Z,49.23
2023-02-07T13:10:02.737Z,50.89
2023-02-07T13:13:26.852Z,50.97
2023-02-07T13:17:51.816Z,49.60
2023-02-07T13:21:13.569Z,49.81
2023-02-07T13:24:29.162Z,53.16
2023-02-07T13:27:57.767Z,52.31
2023-02-07T13:31:37.416Z,50.18
2023-02-07T13:35:12.619Z,48.99
2023-02-07T13:39:30.541Z,49.48
2023-02-07T13:43:20.235Z,47.81
2023-02-07T13:47:16.435Z,48.31
2023-02-07T13:50:53.454Z,48.25
2023-02-07T14:03:22.376Z,47.59
2023-02-07T14:06:33.710Z,47.49
2023-02-07T14:09:46.830Z,47.50
2023-02-07T14:12:54.419Z,48.03
2023-02-07T14:16:52.424Z,48.08
2023-02-07T14:20:41.600Z,47.67
2023-02-07T14:24:10.251Z,47.43
2023-02-07T14:27:38.047Z,47.43
2023-02-07T14:31:11.903Z,46.89
2023-02-07T14:35:01.618Z,47.13
2023-02-07T14:38:36.444Z,49.31
2023-02-07T14:41:43.086Z,49.97
2023-02-07T14:44:49.951Z,50.82
2023-02-07T14:52:27.135Z,51.78
2023-02-07T15:00:12.410Z,53.37
2023-02-07T15:03:36.079Z,53.04
2023-02-07T15:06:45.009Z,53.88
2023-02-07T15:09:51.788Z,55.08
2023-02-07T15:13:26.090Z,54.93
2023-02-07T15:16:38.590Z,56.17
2023-02-07T15:20:29.853Z,55.66
2023-02-07T15:24:06.024Z,55.16
2023-02-07T15:27:32.907Z,55.97
2023-02-07T15:31:03.801Z,56.69
2023-02-07T15:34:49.537Z,57.59
2023-02-07T15:38:38.213Z,58.83
2023-02-07T15:42:19.975Z,58.83
2023-02-07T15:46:08.457Z,59.24
2023-02-07T15:50:33.336Z,60.51
2023-02-07T15:54:17.531Z,62.64
2023-02-07T16:06:18.206Z,68.40
2023-02-07T16:09:44.143Z,69.50
2023-02-07T16:13:27.674Z,70.99
2023-02-07T16:25:23.888Z,74.28
2023-02-07T16:37:01.927Z,77.89
2023-02-07T16:40:29.318Z,78.72
2023-02-07T16:44:27.149Z,79.51
2023-02-07T16:48:48.937Z,80.57
2023-02-07T16:52:17.728Z,82.13
2023-02-07T16:56:27.937Z,82.65
2023-02-07T17:00:22.333Z,85.05
2023-02-07T17:04:46.041Z,84.54
2023-02-07T17:16:27.609Z,80.42
2023-02-07T17:19:55.207Z,81.27
2023-02-07T17:23:24.855Z,81.85
2023-02-07T17:27:11.540Z,81.49
2023-02-07T17:30:54.765Z,82.04
2023-02-07T17:34:00.527Z,83.43
2023-02-07T17:37:07.066Z,84.14
2023-02-07T17:40:42.529Z,84.48
2023-02-07T17:44:28.689Z,85.26
2023-02-07T17:47:56.978Z,85.42
2023-02-07T17:51:29.040Z,86.01
2023-02-07T17:54:35.649Z,86.20
2023-02-07T17:58:16.171Z,86.98
2023-02-07T18:01:53.210Z,87.67
2023-02-07T18:05:27.398Z,87.95
2023-02-07T18:08:30.390Z,88.51
2023-02-07T18:11:48.703Z,90.13
2023-02-07T18:15:09.073Z,90.25
2023-02-07T18:18:55.561Z,90.64
2023-02-07T18:22:41.701Z,91.18
2023-02-07T18:26:26.012Z,91.41
2023-02-07T18:33:56.060Z,91.99
2023-02-07T18:41:00.449Z,93.37
2023-02-07T18:44:45.003Z,93.85
2023-02-07T18:48:21.389Z,93.75
2023-02-07T18:52:14.007Z,93.81
2023-02-07T18:55:48.139Z,94.04
2023-02-07T18:59:26.244Z,94.51
2023-02-07T19:02:50.286Z,94.62
2023-02-07T19:06:32.521Z,95.01
2023-02-07T19:10:47.150Z,95.42
2023-02-07T19:21:40.412Z,96.13
2023-02-07T19:25:43.168Z,96.90
2023-02-07T19:29:33.774Z,97.24
2023-02-07T19:33:42.211Z,97.72
2023-02-07T19:41:13.286Z,98.17
2023-02-07T19:49:43.980Z,98.01
2023-02-07T21:06:11.036Z,100.00
2023-02-07T21:08:14.830Z,100.00
2023-02-07T21:11:17.990Z,100.00
2023-02-07T21:14:30.035Z,100.00
2023-02-07T21:17:37.050Z,100.00
2023-02-07T21:20:40.342Z,100.00
2023-02-07T21:23:44.058Z,100.00
2023-02-07T21:26:49.490Z,100.00
2023-02-07T21:29:53.012Z,100.00
2023-02-07T21:32:55.665Z,100.00
2023-02-07T21:36:05.771Z,100.00
2023-02-07T21:39:12.170Z,100.00
2023-02-07T21:42:16.794Z,100.00
2023-02-07T21:45:19.703Z,100.00
2023-02-07T21:48:22.980Z,100.00
2023-02-07T21:51:29.086Z,100.00
2023-02-07T21:54:34.601Z,100.00
2023-02-07T21:57:42.180Z,100.00
2023-02-07T22:00:45.316Z,100.00
2023-02-07T22:03:51.437Z,100.00
2023-02-07T22:06:59.977Z,100.00
2023-02-07T22:10:02.890Z,100.00
2023-02-07T22:13:08.149Z,100.00
2023-02-07T22:16:14.497Z,100.00
2023-02-07T22:19:17.610Z,100.00
2023-02-07T22:22:20.560Z,100.00
2023-02-07T22:25:25.315Z,100.00
2023-02-07T22:28:29.467Z,100.00
2023-02-07T22:31:34.848Z,100.00
2023-02-07T22:34:38.217Z,100.00
2023-02-07T22:37:43.222Z,100.00
2023-02-07T22:40:48.464Z,100.00
2023-02-07T22:43:53.602Z,100.00
2023-02-07T22:46:57.006Z,100.00
2023-02-07T22:50:02.138Z,100.00
2023-02-07T22:53:07.720Z,100.00
2023-02-07T22:56:10.317Z,100.00
2023-02-07T22:59:13.812Z,100.00
2023-02-07T23:02:16.770Z,100.00
2023-02-07T23:05:20.257Z,100.00
2023-02-07T23:08:23.080Z,100.00
2023-02-07T23:11:29.227Z,100.00
2023-02-07T23:14:33.826Z,100.00
2023-02-07T23:17:39.708Z,100.00
2023-02-07T23:20:44.525Z,100.00
2023-02-07T23:23:48.960Z,100.00
2023-02-07T23:26:52.884Z,100.00
2023-02-07T23:29:56.123Z,100.00
2023-02-07T23:33:03.133Z,100.00
2023-02-07T23:36:06.984Z,100.00
2023-02-07T23:39:14.889Z,100.00
2023-02-07T23:42:20.595Z,100.00
2023-02-07T23:45:23.518Z,100.00
2023-02-07T23:48:26.735Z,100.00
2023-02-07T23:51:29.596Z,100.00
2023-02-07T23:54:33.931Z,100.00
2023-02-07T23:57:36.493Z,100.00
